sensor_id;sensor_type;location;lat;lon;timestamp;temperature;humidity
24410;DHT22;12543;53.364;-1.504;2022-11-15T00:00:15;10.80;99.90
24410;DHT22;12543;53.364;-1.504;2022-11-15T00:03:00;10.70;99.90
24410;DHT22;12543;53.364;-1.504;2022-11-15T00:05:46;10.70;99.90
24410;DHT22;12543;53.364;-1.504;2022-11-15T00:08:32;10.60;99.90
24410;DHT22;12543;53.364;-1.504;2022-11-15T00:11:18;10.60;99.90
24410;DHT22;12543;53.364;-1.504;2022-11-15T00:14:04;10.50;99.90
24410;DHT22;12543;53.364;-1.504;2022-11-15T00:16:49;10.50;99.90
24410;DHT22;12543;53.364;-1.504;2022-11-15T00:19:35;10.40;99.90
24410;DHT22;12543;53.364;-1.504;2022-11-15T00:22:21;10.40;99.90
24410;DHT22;12543;53.364;-1.504;2022-11-15T00:25:06;10.30;99.90
24410;DHT22;12543;53.364;-1.504;2022-11-15T00:27:55;10.30;99.90
24410;DHT22;12543;53.364;-1.504;2022-11-15T00:30:42;10.20;99.90
24410;DHT22;12543;53.364;-1.504;2022-11-15T00:33:27;10.20;99.90
24410;DHT22;12543;53.364;-1.504;2022-11-15T00:36:13;10.10;99.90
24410;DHT22;12543;53.364;-1.504;2022-11-15T00:38:59;10.00;99.90
24410;DHT22;12543;53.364;-1.504;2022-11-15T00:41:45;10.00;99.90
24410;DHT22;12543;53.364;-1.504;2022-11-15T00:44:31;10.00;99.90
24410;DHT22;12543;53.364;-1.504;2022-11-15T00:47:17;9.90;99.90
24410;DHT22;12543;53.364;-1.504;2022-11-15T00:50:03;9.90;99.90
24410;DHT22;12543;53.364;-1.504;2022-11-15T00:52:48;9.80;99.90
24410;DHT22;12543;53.364;-1.504;2022-11-15T00:55:34;9.80;99.90
24410;DHT22;12543;53.364;-1.504;2022-11-15T00:58:19;9.80;99.90
24410;DHT22;12543;53.364;-1.504;2022-11-15T01:01:12;9.80;99.90
24410;DHT22;12543;53.364;-1.504;2022-11-15T01:03:58;9.80;99.90
24410;DHT22;12543;53.364;-1.504;2022-11-15T01:06:45;9.80;99.90
24410;DHT22;12543;53.364;-1.504;2022-11-15T01:09:31;9.70;99.90
24410;DHT22;12543;53.364;-1.504;2022-11-15T01:12:17;9.70;99.90
24410;DHT22;12543;53.364;-1.504;2022-11-15T01:15:03;9.60;99.90
24410;DHT22;12543;53.364;-1.504;2022-11-15T01:17:49;9.70;99.90
24410;DHT22;12543;53.364;-1.504;2022-11-15T01:20:40;9.60;99.90
24410;DHT22;12543;53.364;-1.504;2022-11-15T01:23:25;9.60;99.90
24410;DHT22;12543;53.364;-1.504;2022-11-15T01:26:13;9.60;99.90
24410;DHT22;12543;53.364;-1.504;2022-11-15T01:28:59;9.50;99.90
24410;DHT22;12543;53.364;-1.504;2022-11-15T01:31:44;9.50;99.90
24410;DHT22;12543;53.364;-1.504;2022-11-15T01:34:30;9.50;99.90
24410;DHT22;12543;53.364;-1.504;2022-11-15T01:37:15;9.50;99.90
24410;DHT22;12543;53.364;-1.504;2022-11-15T01:40:01;9.50;99.90
24410;DHT22;12543;53.364;-1.504;2022-11-15T01:42:46;9.50;99.90
24410;DHT22;12543;53.364;-1.504;2022-11-15T01:45:32;9.50;99.90
24410;DHT22;12543;53.364;-1.504;2022-11-15T01:48:17;9.40;99.90
24410;DHT22;12543;53.364;-1.504;2022-11-15T01:51:07;9.40;99.90
24410;DHT22;12543;53.364;-1.504;2022-11-15T01:53:56;9.40;99.90
24410;DHT22;12543;53.364;-1.504;2022-11-15T01:56:53;9.30;99.90
24410;DHT22;12543;53.364;-1.504;2022-11-15T01:59:43;9.30;99.90
24410;DHT22;12543;53.364;-1.504;2022-11-15T02:02:30;9.30;99.90
24410;DHT22;12543;53.364;-1.504;2022-11-15T02:05:16;9.30;99.90
24410;DHT22;12543;53.364;-1.504;2022-11-15T02:08:02;9.30;99.90
24410;DHT22;12543;53.364;-1.504;2022-11-15T02:10:47;9.30;99.90
24410;DHT22;12543;53.364;-1.504;2022-11-15T02:13:32;9.30;99.90
24410;DHT22;12543;53.364;-1.504;2022-11-15T02:16:44;9.30;99.90
24410;DHT22;12543;53.364;-1.504;2022-11-15T02:23:04;9.20;99.90
24410;DHT22;12543;53.364;-1.504;2022-11-15T02:29:08;9.20;99.90
24410;DHT22;12543;53.364;-1.504;2022-11-15T02:32:06;9.20;99.90
24410;DHT22;12543;53.364;-1.504;2022-11-15T02:38:02;9.20;99.90
24410;DHT22;12543;53.364;-1.504;2022-11-15T02:40:54;9.20;99.90
24410;DHT22;12543;53.364;-1.504;2022-11-15T02:43:59;9.20;99.90
24410;DHT22;12543;53.364;-1.504;2022-11-15T02:46:51;9.20;99.90
24410;DHT22;12543;53.364;-1.504;2022-11-15T02:50:04;9.30;99.90
24410;DHT22;12543;53.364;-1.504;2022-11-15T02:52:52;9.30;99.90
24410;DHT22;12543;53.364;-1.504;2022-11-15T02:55:43;9.30;99.90
24410;DHT22;12543;53.364;-1.504;2022-11-15T02:59:11;9.30;99.90
24410;DHT22;12543;53.364;-1.504;2022-11-15T03:05:03;9.30;99.90
24410;DHT22;12543;53.364;-1.504;2022-11-15T03:08:10;9.30;99.90
24410;DHT22;12543;53.364;-1.504;2022-11-15T03:11:10;9.40;99.90
24410;DHT22;12543;53.364;-1.504;2022-11-15T03:19:55;9.40;99.90
24410;DHT22;12543;53.364;-1.504;2022-11-15T03:22:44;9.40;99.90
24410;DHT22;12543;53.364;-1.504;2022-11-15T03:25:31;9.40;99.90
24410;DHT22;12543;53.364;-1.504;2022-11-15T03:28:23;9.40;99.90
24410;DHT22;12543;53.364;-1.504;2022-11-15T03:31:12;9.40;99.90
24410;DHT22;12543;53.364;-1.504;2022-11-15T03:34:26;9.30;99.90
24410;DHT22;12543;53.364;-1.504;2022-11-15T03:37:14;9.30;99.90
24410;DHT22;12543;53.364;-1.504;2022-11-15T03:40:02;9.30;99.90
24410;DHT22;12543;53.364;-1.504;2022-11-15T03:46:39;9.30;99.90
24410;DHT22;12543;53.364;-1.504;2022-11-15T03:49:32;9.30;99.90
24410;DHT22;12543;53.364;-1.504;2022-11-15T03:52:20;9.30;99.90
24410;DHT22;12543;53.364;-1.504;2022-11-15T03:55:10;9.30;99.90
24410;DHT22;12543;53.364;-1.504;2022-11-15T03:57:58;9.20;99.90
24410;DHT22;12543;53.364;-1.504;2022-11-15T04:00:44;9.30;99.90
24410;DHT22;12543;53.364;-1.504;2022-11-15T04:03:30;9.30;99.90
24410;DHT22;12543;53.364;-1.504;2022-11-15T04:06:16;9.30;99.90
24410;DHT22;12543;53.364;-1.504;2022-11-15T04:09:02;9.30;99.90
24410;DHT22;12543;53.364;-1.504;2022-11-15T04:11:48;9.30;99.90
24410;DHT22;12543;53.364;-1.504;2022-11-15T04:14:33;9.30;99.90
24410;DHT22;12543;53.364;-1.504;2022-11-15T04:17:19;9.30;99.90
24410;DHT22;12543;53.364;-1.504;2022-11-15T04:20:07;9.30;99.90
24410;DHT22;12543;53.364;-1.504;2022-11-15T04:23:16;9.30;99.90
24410;DHT22;12543;53.364;-1.504;2022-11-15T04:26:22;9.30;99.90
24410;DHT22;12543;53.364;-1.504;2022-11-15T04:29:07;9.30;99.90
24410;DHT22;12543;53.364;-1.504;2022-11-15T04:32:11;9.30;99.90
24410;DHT22;12543;53.364;-1.504;2022-11-15T04:34:57;9.20;99.90
24410;DHT22;12543;53.364;-1.504;2022-11-15T04:37:42;9.30;99.90
24410;DHT22;12543;53.364;-1.504;2022-11-15T04:40:33;9.30;99.90
24410;DHT22;12543;53.364;-1.504;2022-11-15T04:43:19;9.30;99.90
24410;DHT22;12543;53.364;-1.504;2022-11-15T04:46:05;9.30;99.90
24410;DHT22;12543;53.364;-1.504;2022-11-15T04:48:51;9.30;99.90
24410;DHT22;12543;53.364;-1.504;2022-11-15T04:51:43;9.30;99.90
24410;DHT22;12543;53.364;-1.504;2022-11-15T04:54:28;9.30;99.90
24410;DHT22;12543;53.364;-1.504;2022-11-15T04:57:14;9.30;99.90
24410;DHT22;12543;53.364;-1.504;2022-11-15T04:59:59;9.30;99.90
24410;DHT22;12543;53.364;-1.504;2022-11-15T05:02:45;9.30;99.90
24410;DHT22;12543;53.364;-1.504;2022-11-15T05:05:49;9.40;99.90
24410;DHT22;12543;53.364;-1.504;2022-11-15T05:08:34;9.40;99.90
24410;DHT22;12543;53.364;-1.504;2022-11-15T05:11:20;9.40;99.90
24410;DHT22;12543;53.364;-1.504;2022-11-15T05:14:05;9.40;99.90
24410;DHT22;12543;53.364;-1.504;2022-11-15T05:16:51;9.40;99.90
24410;DHT22;12543;53.364;-1.504;2022-11-15T05:19:37;9.40;99.90
24410;DHT22;12543;53.364;-1.504;2022-11-15T05:22:23;9.40;99.90
24410;DHT22;12543;53.364;-1.504;2022-11-15T05:25:08;9.40;99.90
24410;DHT22;12543;53.364;-1.504;2022-11-15T05:27:54;9.50;99.90
24410;DHT22;12543;53.364;-1.504;2022-11-15T05:30:39;9.50;99.90
24410;DHT22;12543;53.364;-1.504;2022-11-15T05:33:26;9.50;99.90
24410;DHT22;12543;53.364;-1.504;2022-11-15T05:39:11;9.50;99.90
24410;DHT22;12543;53.364;-1.504;2022-11-15T05:42:19;9.50;99.90
24410;DHT22;12543;53.364;-1.504;2022-11-15T05:45:06;9.40;99.90
24410;DHT22;12543;53.364;-1.504;2022-11-15T05:47:53;9.40;99.90
24410;DHT22;12543;53.364;-1.504;2022-11-15T05:50:44;9.50;99.90
24410;DHT22;12543;53.364;-1.504;2022-11-15T05:53:31;9.50;99.90
24410;DHT22;12543;53.364;-1.504;2022-11-15T05:56:18;9.50;99.90
24410;DHT22;12543;53.364;-1.504;2022-11-15T05:59:04;9.50;99.90
24410;DHT22;12543;53.364;-1.504;2022-11-15T06:01:49;9.50;99.90
24410;DHT22;12543;53.364;-1.504;2022-11-15T06:04:35;9.50;99.90
24410;DHT22;12543;53.364;-1.504;2022-11-15T06:07:21;9.50;99.90
24410;DHT22;12543;53.364;-1.504;2022-11-15T06:10:08;9.60;99.90
24410;DHT22;12543;53.364;-1.504;2022-11-15T06:13:03;9.60;99.90
24410;DHT22;12543;53.364;-1.504;2022-11-15T06:15:49;9.60;99.90
24410;DHT22;12543;53.364;-1.504;2022-11-15T06:18:35;9.60;99.90
24410;DHT22;12543;53.364;-1.504;2022-11-15T06:21:21;9.60;99.90
24410;DHT22;12543;53.364;-1.504;2022-11-15T06:24:06;9.70;99.90
24410;DHT22;12543;53.364;-1.504;2022-11-15T06:26:52;9.70;99.90
24410;DHT22;12543;53.364;-1.504;2022-11-15T06:29:38;9.70;99.90
24410;DHT22;12543;53.364;-1.504;2022-11-15T06:32:23;9.70;99.90
24410;DHT22;12543;53.364;-1.504;2022-11-15T06:35:09;9.70;99.90
24410;DHT22;12543;53.364;-1.504;2022-11-15T06:37:55;9.80;99.90
24410;DHT22;12543;53.364;-1.504;2022-11-15T06:40:40;9.80;99.90
24410;DHT22;12543;53.364;-1.504;2022-11-15T06:43:26;9.80;99.90
24410;DHT22;12543;53.364;-1.504;2022-11-15T06:46:11;9.80;99.90
24410;DHT22;12543;53.364;-1.504;2022-11-15T06:48:56;9.80;99.90
24410;DHT22;12543;53.364;-1.504;2022-11-15T06:51:42;9.80;99.90
24410;DHT22;12543;53.364;-1.504;2022-11-15T06:54:28;9.80;99.90
24410;DHT22;12543;53.364;-1.504;2022-11-15T06:57:13;9.80;99.90
24410;DHT22;12543;53.364;-1.504;2022-11-15T06:59:59;9.80;99.90
24410;DHT22;12543;53.364;-1.504;2022-11-15T07:02:45;9.80;99.90
24410;DHT22;12543;53.364;-1.504;2022-11-15T07:05:31;9.80;99.90
24410;DHT22;12543;53.364;-1.504;2022-11-15T07:08:17;9.80;99.90
24410;DHT22;12543;53.364;-1.504;2022-11-15T07:11:06;9.80;99.90
24410;DHT22;12543;53.364;-1.504;2022-11-15T07:13:52;9.80;99.90
24410;DHT22;12543;53.364;-1.504;2022-11-15T07:16:38;9.80;99.90
24410;DHT22;12543;53.364;-1.504;2022-11-15T07:19:23;9.80;99.90
24410;DHT22;12543;53.364;-1.504;2022-11-15T07:22:09;9.80;99.90
24410;DHT22;12543;53.364;-1.504;2022-11-15T07:24:54;9.80;99.90
24410;DHT22;12543;53.364;-1.504;2022-11-15T07:27:40;9.80;99.90
24410;DHT22;12543;53.364;-1.504;2022-11-15T07:30:26;9.80;99.90
24410;DHT22;12543;53.364;-1.504;2022-11-15T07:33:12;9.80;99.90
24410;DHT22;12543;53.364;-1.504;2022-11-15T07:35:59;9.80;99.90
24410;DHT22;12543;53.364;-1.504;2022-11-15T07:38:46;9.80;99.90
24410;DHT22;12543;53.364;-1.504;2022-11-15T07:41:32;9.80;99.90
24410;DHT22;12543;53.364;-1.504;2022-11-15T07:44:18;9.80;99.90
24410;DHT22;12543;53.364;-1.504;2022-11-15T07:47:03;9.80;99.90
24410;DHT22;12543;53.364;-1.504;2022-11-15T07:49:49;9.80;99.90
24410;DHT22;12543;53.364;-1.504;2022-11-15T07:52:35;9.80;99.90
24410;DHT22;12543;53.364;-1.504;2022-11-15T07:55:21;9.80;99.90
24410;DHT22;12543;53.364;-1.504;2022-11-15T07:58:08;9.80;99.90
24410;DHT22;12543;53.364;-1.504;2022-11-15T08:00:54;9.80;99.90
24410;DHT22;12543;53.364;-1.504;2022-11-15T08:03:40;9.80;99.90
24410;DHT22;12543;53.364;-1.504;2022-11-15T08:06:25;9.80;99.90
24410;DHT22;12543;53.364;-1.504;2022-11-15T08:09:11;9.90;99.90
24410;DHT22;12543;53.364;-1.504;2022-11-15T08:11:56;9.90;99.90
24410;DHT22;12543;53.364;-1.504;2022-11-15T08:14:42;9.90;99.90
24410;DHT22;12543;53.364;-1.504;2022-11-15T08:17:28;9.90;99.90
24410;DHT22;12543;53.364;-1.504;2022-11-15T08:20:17;9.90;99.90
24410;DHT22;12543;53.364;-1.504;2022-11-15T08:23:03;9.90;99.90
24410;DHT22;12543;53.364;-1.504;2022-11-15T08:25:49;9.90;99.90
24410;DHT22;12543;53.364;-1.504;2022-11-15T08:28:34;9.90;99.90
24410;DHT22;12543;53.364;-1.504;2022-11-15T08:31:20;10.00;99.90
24410;DHT22;12543;53.364;-1.504;2022-11-15T08:34:06;10.00;99.90
24410;DHT22;12543;53.364;-1.504;2022-11-15T08:36:51;10.00;99.90
24410;DHT22;12543;53.364;-1.504;2022-11-15T08:39:37;10.00;99.90
24410;DHT22;12543;53.364;-1.504;2022-11-15T08:42:23;10.00;99.90
24410;DHT22;12543;53.364;-1.504;2022-11-15T08:45:09;10.00;99.90
24410;DHT22;12543;53.364;-1.504;2022-11-15T08:47:55;10.00;99.90
24410;DHT22;12543;53.364;-1.504;2022-11-15T08:50:40;10.00;99.90
24410;DHT22;12543;53.364;-1.504;2022-11-15T08:53:28;10.10;99.90
24410;DHT22;12543;53.364;-1.504;2022-11-15T08:56:15;10.10;99.90
24410;DHT22;12543;53.364;-1.504;2022-11-15T08:59:00;10.10;99.90
24410;DHT22;12543;53.364;-1.504;2022-11-15T09:01:46;10.10;99.90
24410;DHT22;12543;53.364;-1.504;2022-11-15T09:04:32;10.10;99.90
24410;DHT22;12543;53.364;-1.504;2022-11-15T09:07:18;10.10;99.90
24410;DHT22;12543;53.364;-1.504;2022-11-15T09:10:04;10.10;99.90
24410;DHT22;12543;53.364;-1.504;2022-11-15T09:12:49;10.10;99.90
24410;DHT22;12543;53.364;-1.504;2022-11-15T09:15:35;10.10;99.90
24410;DHT22;12543;53.364;-1.504;2022-11-15T09:18:21;10.10;99.90
24410;DHT22;12543;53.364;-1.504;2022-11-15T09:21:08;10.10;99.90
24410;DHT22;12543;53.364;-1.504;2022-11-15T09:23:54;10.20;99.90
24410;DHT22;12543;53.364;-1.504;2022-11-15T09:26:40;10.10;99.90
24410;DHT22;12543;53.364;-1.504;2022-11-15T09:29:26;10.20;99.90
24410;DHT22;12543;53.364;-1.504;2022-11-15T09:32:11;10.20;99.90
24410;DHT22;12543;53.364;-1.504;2022-11-15T09:34:57;10.20;99.90
24410;DHT22;12543;53.364;-1.504;2022-11-15T09:37:43;10.20;99.90
24410;DHT22;12543;53.364;-1.504;2022-11-15T09:40:30;10.20;99.90
24410;DHT22;12543;53.364;-1.504;2022-11-15T09:44:02;10.30;99.90
24410;DHT22;12543;53.364;-1.504;2022-11-15T09:46:57;10.30;99.90
24410;DHT22;12543;53.364;-1.504;2022-11-15T09:49:58;10.30;99.90
24410;DHT22;12543;53.364;-1.504;2022-11-15T09:52:33;10.30;99.90
24410;DHT22;12543;53.364;-1.504;2022-11-15T09:55:02;10.30;99.90
24410;DHT22;12543;53.364;-1.504;2022-11-15T09:58:09;10.30;99.90
24410;DHT22;12543;53.364;-1.504;2022-11-15T10:00:37;10.30;99.90
24410;DHT22;12543;53.364;-1.504;2022-11-15T10:03:22;10.30;99.90
24410;DHT22;12543;53.364;-1.504;2022-11-15T10:05:53;10.30;99.90
24410;DHT22;12543;53.364;-1.504;2022-11-15T10:11:22;10.30;99.90
24410;DHT22;12543;53.364;-1.504;2022-11-15T10:14:45;10.30;99.90
24410;DHT22;12543;53.364;-1.504;2022-11-15T10:17:42;10.30;99.90
24410;DHT22;12543;53.364;-1.504;2022-11-15T10:20:21;10.40;99.90
24410;DHT22;12543;53.364;-1.504;2022-11-15T10:22:51;10.40;99.90
24410;DHT22;12543;53.364;-1.504;2022-11-15T10:25:30;10.40;99.90
24410;DHT22;12543;53.364;-1.504;2022-11-15T10:28:21;10.40;99.90
24410;DHT22;12543;53.364;-1.504;2022-11-15T10:30:54;10.40;99.90
24410;DHT22;12543;53.364;-1.504;2022-11-15T10:33:38;10.40;99.90
24410;DHT22;12543;53.364;-1.504;2022-11-15T10:47:06;10.50;99.90
24410;DHT22;12543;53.364;-1.504;2022-11-15T10:49:34;10.50;99.90
24410;DHT22;12543;53.364;-1.504;2022-11-15T10:52:12;10.50;99.90
24410;DHT22;12543;53.364;-1.504;2022-11-15T10:54:54;10.60;99.90
24410;DHT22;12543;53.364;-1.504;2022-11-15T10:57:24;10.50;99.90
24410;DHT22;12543;53.364;-1.504;2022-11-15T10:59:55;10.50;99.90
24410;DHT22;12543;53.364;-1.504;2022-11-15T11:03:02;10.60;99.90
24410;DHT22;12543;53.364;-1.504;2022-11-15T11:05:36;10.60;99.90
24410;DHT22;12543;53.364;-1.504;2022-11-15T11:10:38;10.60;99.90
24410;DHT22;12543;53.364;-1.504;2022-11-15T11:13:28;10.60;99.90
24410;DHT22;12543;53.364;-1.504;2022-11-15T11:18:38;10.70;99.90
24410;DHT22;12543;53.364;-1.504;2022-11-15T11:21:13;10.60;99.90
24410;DHT22;12543;53.364;-1.504;2022-11-15T11:23:54;10.70;99.90
24410;DHT22;12543;53.364;-1.504;2022-11-15T11:26:39;10.70;99.90
24410;DHT22;12543;53.364;-1.504;2022-11-15T11:43:19;10.80;99.90
24410;DHT22;12543;53.364;-1.504;2022-11-15T11:46:18;10.80;99.90
24410;DHT22;12543;53.364;-1.504;2022-11-15T11:49:01;10.80;99.90
24410;DHT22;12543;53.364;-1.504;2022-11-15T11:51:49;10.80;99.90
24410;DHT22;12543;53.364;-1.504;2022-11-15T12:02:45;10.90;99.90
24410;DHT22;12543;53.364;-1.504;2022-11-15T12:05:22;10.90;99.90
24410;DHT22;12543;53.364;-1.504;2022-11-15T12:08:00;10.90;99.90
24410;DHT22;12543;53.364;-1.504;2022-11-15T12:10:30;10.90;99.90
24410;DHT22;12543;53.364;-1.504;2022-11-15T12:13:07;10.90;99.90
24410;DHT22;12543;53.364;-1.504;2022-11-15T12:15:45;11.00;99.90
24410;DHT22;12543;53.364;-1.504;2022-11-15T12:18:15;11.00;99.90
24410;DHT22;12543;53.364;-1.504;2022-11-15T12:21:41;10.90;99.90
24410;DHT22;12543;53.364;-1.504;2022-11-15T12:24:01;11.00;99.90
24410;DHT22;12543;53.364;-1.504;2022-11-15T12:27:08;11.00;99.90
24410;DHT22;12543;53.364;-1.504;2022-11-15T12:29:43;11.00;99.90
24410;DHT22;12543;53.364;-1.504;2022-11-15T12:32:35;11.00;99.90
24410;DHT22;12543;53.364;-1.504;2022-11-15T12:35:20;11.00;99.90
24410;DHT22;12543;53.364;-1.504;2022-11-15T12:37:51;11.00;99.90
24410;DHT22;12543;53.364;-1.504;2022-11-15T12:40:23;11.00;99.90
24410;DHT22;12543;53.364;-1.504;2022-11-15T12:43:34;11.10;99.90
24410;DHT22;12543;53.364;-1.504;2022-11-15T12:45:49;11.10;99.90
24410;DHT22;12543;53.364;-1.504;2022-11-15T13:07:09;11.20;99.90
24410;DHT22;12543;53.364;-1.504;2022-11-15T13:12:03;11.20;99.90
24410;DHT22;12543;53.364;-1.504;2022-11-15T13:19:43;11.20;99.90
24410;DHT22;12543;53.364;-1.504;2022-11-15T13:22:12;11.20;99.90
24410;DHT22;12543;53.364;-1.504;2022-11-15T13:24:59;11.20;99.90
24410;DHT22;12543;53.364;-1.504;2022-11-15T13:27:28;11.20;99.90
24410;DHT22;12543;53.364;-1.504;2022-11-15T13:29:55;11.20;99.90
24410;DHT22;12543;53.364;-1.504;2022-11-15T13:32:22;11.30;99.90
24410;DHT22;12543;53.364;-1.504;2022-11-15T13:34:50;11.20;99.90
24410;DHT22;12543;53.364;-1.504;2022-11-15T13:39:49;11.30;99.90
24410;DHT22;12543;53.364;-1.504;2022-11-15T13:42:19;11.30;99.90
24410;DHT22;12543;53.364;-1.504;2022-11-15T13:45:02;11.30;99.90
24410;DHT22;12543;53.364;-1.504;2022-11-15T13:47:29;11.30;99.90
24410;DHT22;12543;53.364;-1.504;2022-11-15T13:49:59;11.30;99.90
24410;DHT22;12543;53.364;-1.504;2022-11-15T13:52:34;11.30;99.90
24410;DHT22;12543;53.364;-1.504;2022-11-15T13:57:41;11.40;99.90
24410;DHT22;12543;53.364;-1.504;2022-11-15T14:00:44;11.40;99.90
24410;DHT22;12543;53.364;-1.504;2022-11-15T14:03:32;11.40;99.90
24410;DHT22;12543;53.364;-1.504;2022-11-15T14:08:29;11.50;99.90
24410;DHT22;12543;53.364;-1.504;2022-11-15T14:11:08;11.40;99.90
24410;DHT22;12543;53.364;-1.504;2022-11-15T14:13:36;11.50;99.90
24410;DHT22;12543;53.364;-1.504;2022-11-15T14:16:36;11.50;99.90
24410;DHT22;12543;53.364;-1.504;2022-11-15T14:19:05;11.50;99.90
24410;DHT22;12543;53.364;-1.504;2022-11-15T14:21:33;11.60;99.90
24410;DHT22;12543;53.364;-1.504;2022-11-15T14:24:17;11.60;99.90
24410;DHT22;12543;53.364;-1.504;2022-11-15T14:26:45;11.60;99.90
24410;DHT22;12543;53.364;-1.504;2022-11-15T14:29:29;11.60;99.90
24410;DHT22;12543;53.364;-1.504;2022-11-15T14:32:13;11.60;99.90
24410;DHT22;12543;53.364;-1.504;2022-11-15T14:34:41;11.60;99.90
24410;DHT22;12543;53.364;-1.504;2022-11-15T14:37:23;11.60;99.90
24410;DHT22;12543;53.364;-1.504;2022-11-15T14:39:51;11.60;99.90
24410;DHT22;12543;53.364;-1.504;2022-11-15T14:42:19;11.60;99.90
24410;DHT22;12543;53.364;-1.504;2022-11-15T14:44:47;11.60;99.90
24410;DHT22;12543;53.364;-1.504;2022-11-15T14:47:14;11.60;99.90
24410;DHT22;12543;53.364;-1.504;2022-11-15T14:49:41;11.70;99.90
24410;DHT22;12543;53.364;-1.504;2022-11-15T14:52:29;11.70;99.90
24410;DHT22;12543;53.364;-1.504;2022-11-15T14:54:59;11.70;99.90
24410;DHT22;12543;53.364;-1.504;2022-11-15T14:57:28;11.60;99.90
24410;DHT22;12543;53.364;-1.504;2022-11-15T14:59:55;11.60;99.90
24410;DHT22;12543;53.364;-1.504;2022-11-15T15:02:37;11.60;99.90
24410;DHT22;12543;53.364;-1.504;2022-11-15T15:05:32;11.60;99.90
24410;DHT22;12543;53.364;-1.504;2022-11-15T15:08:00;11.60;99.90
24410;DHT22;12543;53.364;-1.504;2022-11-15T15:10:34;11.60;99.90
24410;DHT22;12543;53.364;-1.504;2022-11-15T15:15:44;11.50;99.90
24410;DHT22;12543;53.364;-1.504;2022-11-15T15:18:11;11.50;99.90
24410;DHT22;12543;53.364;-1.504;2022-11-15T15:20:39;11.50;99.90
24410;DHT22;12543;53.364;-1.504;2022-11-15T15:23:18;11.40;99.90
24410;DHT22;12543;53.364;-1.504;2022-11-15T15:25:47;11.40;99.90
24410;DHT22;12543;53.364;-1.504;2022-11-15T15:28:15;11.30;99.90
24410;DHT22;12543;53.364;-1.504;2022-11-15T15:30:42;11.30;99.90
24410;DHT22;12543;53.364;-1.504;2022-11-15T15:33:10;11.20;99.90
24410;DHT22;12543;53.364;-1.504;2022-11-15T15:35:37;11.10;99.90
24410;DHT22;12543;53.364;-1.504;2022-11-15T15:38:04;11.10;99.90
24410;DHT22;12543;53.364;-1.504;2022-11-15T15:40:32;11.00;99.90
24410;DHT22;12543;53.364;-1.504;2022-11-15T15:42:59;11.00;99.90
24410;DHT22;12543;53.364;-1.504;2022-11-15T15:45:27;10.90;99.90
24410;DHT22;12543;53.364;-1.504;2022-11-15T15:47:55;10.90;99.90
24410;DHT22;12543;53.364;-1.504;2022-11-15T15:50:24;10.90;99.90
24410;DHT22;12543;53.364;-1.504;2022-11-15T15:52:53;10.80;99.90
24410;DHT22;12543;53.364;-1.504;2022-11-15T15:55:21;10.80;99.90
24410;DHT22;12543;53.364;-1.504;2022-11-15T15:57:48;10.70;99.90
24410;DHT22;12543;53.364;-1.504;2022-11-15T16:00:16;10.70;99.90
24410;DHT22;12543;53.364;-1.504;2022-11-15T16:02:43;10.70;99.90
24410;DHT22;12543;53.364;-1.504;2022-11-15T16:05:12;10.60;99.90
24410;DHT22;12543;53.364;-1.504;2022-11-15T16:07:40;10.50;99.90
24410;DHT22;12543;53.364;-1.504;2022-11-15T16:10:26;10.40;99.90
24410;DHT22;12543;53.364;-1.504;2022-11-15T16:12:55;10.30;99.90
24410;DHT22;12543;53.364;-1.504;2022-11-15T16:15:23;10.30;99.90
24410;DHT22;12543;53.364;-1.504;2022-11-15T16:17:52;10.20;99.90
24410;DHT22;12543;53.364;-1.504;2022-11-15T16:20:32;10.10;99.90
24410;DHT22;12543;53.364;-1.504;2022-11-15T16:23:00;10.00;99.90
24410;DHT22;12543;53.364;-1.504;2022-11-15T16:25:39;10.00;99.90
24410;DHT22;12543;53.364;-1.504;2022-11-15T16:28:24;9.90;99.90
24410;DHT22;12543;53.364;-1.504;2022-11-15T16:31:03;9.80;99.90
24410;DHT22;12543;53.364;-1.504;2022-11-15T16:33:31;9.80;99.90
24410;DHT22;12543;53.364;-1.504;2022-11-15T16:35:58;9.70;99.90
24410;DHT22;12543;53.364;-1.504;2022-11-15T16:38:25;9.70;99.90
24410;DHT22;12543;53.364;-1.504;2022-11-15T16:40:52;9.60;99.90
24410;DHT22;12543;53.364;-1.504;2022-11-15T16:43:19;9.50;99.90
24410;DHT22;12543;53.364;-1.504;2022-11-15T16:45:46;9.50;99.90
24410;DHT22;12543;53.364;-1.504;2022-11-15T16:48:26;9.40;99.90
24410;DHT22;12543;53.364;-1.504;2022-11-15T16:50:57;9.40;99.90
24410;DHT22;12543;53.364;-1.504;2022-11-15T16:53:26;9.30;99.90
24410;DHT22;12543;53.364;-1.504;2022-11-15T16:55:56;9.30;99.90
24410;DHT22;12543;53.364;-1.504;2022-11-15T16:58:23;9.30;99.90
24410;DHT22;12543;53.364;-1.504;2022-11-15T17:00:55;9.20;99.90
24410;DHT22;12543;53.364;-1.504;2022-11-15T17:03:23;9.20;99.90
24410;DHT22;12543;53.364;-1.504;2022-11-15T17:05:51;9.10;99.90
24410;DHT22;12543;53.364;-1.504;2022-11-15T17:08:18;9.10;99.90
24410;DHT22;12543;53.364;-1.504;2022-11-15T17:10:47;9.00;99.90
24410;DHT22;12543;53.364;-1.504;2022-11-15T17:13:15;9.00;99.90
24410;DHT22;12543;53.364;-1.504;2022-11-15T17:15:42;9.00;99.90
24410;DHT22;12543;53.364;-1.504;2022-11-15T17:18:12;8.90;99.90
24410;DHT22;12543;53.364;-1.504;2022-11-15T17:20:41;8.90;99.90
24410;DHT22;12543;53.364;-1.504;2022-11-15T17:23:12;8.90;99.90
24410;DHT22;12543;53.364;-1.504;2022-11-15T17:25:41;8.90;99.90
24410;DHT22;12543;53.364;-1.504;2022-11-15T17:28:08;8.90;99.90
24410;DHT22;12543;53.364;-1.504;2022-11-15T17:30:35;8.80;99.90
24410;DHT22;12543;53.364;-1.504;2022-11-15T17:33:02;8.80;99.90
24410;DHT22;12543;53.364;-1.504;2022-11-15T17:35:29;8.70;99.90
24410;DHT22;12543;53.364;-1.504;2022-11-15T17:37:56;8.70;99.90
24410;DHT22;12543;53.364;-1.504;2022-11-15T17:40:23;8.70;99.90
24410;DHT22;12543;53.364;-1.504;2022-11-15T17:42:50;8.70;99.90
24410;DHT22;12543;53.364;-1.504;2022-11-15T17:45:17;8.70;99.90
24410;DHT22;12543;53.364;-1.504;2022-11-15T17:47:44;8.70;99.90
24410;DHT22;12543;53.364;-1.504;2022-11-15T17:50:11;8.60;99.90
24410;DHT22;12543;53.364;-1.504;2022-11-15T17:52:38;8.60;99.90
24410;DHT22;12543;53.364;-1.504;2022-11-15T17:55:05;8.60;99.90
24410;DHT22;12543;53.364;-1.504;2022-11-15T17:57:32;8.50;99.90
24410;DHT22;12543;53.364;-1.504;2022-11-15T17:59:59;8.60;99.90
24410;DHT22;12543;53.364;-1.504;2022-11-15T18:02:29;8.50;99.90
24410;DHT22;12543;53.364;-1.504;2022-11-15T18:04:56;8.50;99.90
24410;DHT22;12543;53.364;-1.504;2022-11-15T18:07:23;8.50;99.90
24410;DHT22;12543;53.364;-1.504;2022-11-15T18:09:50;8.40;99.90
24410;DHT22;12543;53.364;-1.504;2022-11-15T18:12:17;8.40;99.90
24410;DHT22;12543;53.364;-1.504;2022-11-15T18:14:45;8.30;99.90
24410;DHT22;12543;53.364;-1.504;2022-11-15T18:17:12;8.30;99.90
24410;DHT22;12543;53.364;-1.504;2022-11-15T18:19:39;8.30;99.90
24410;DHT22;12543;53.364;-1.504;2022-11-15T18:22:06;8.30;99.90
24410;DHT22;12543;53.364;-1.504;2022-11-15T18:24:36;8.20;99.90
24410;DHT22;12543;53.364;-1.504;2022-11-15T18:27:08;8.20;99.90
24410;DHT22;12543;53.364;-1.504;2022-11-15T18:29:35;8.20;99.90
24410;DHT22;12543;53.364;-1.504;2022-11-15T18:32:05;8.20;99.90
24410;DHT22;12543;53.364;-1.504;2022-11-15T18:34:38;8.20;99.90
24410;DHT22;12543;53.364;-1.504;2022-11-15T18:37:06;8.20;99.90